Time;durP1;ratioP1;P1;durP2;ratioP2;P2;SDS_P1;SDS_P2;PMS_P1;PMS_P2;Temp;Humidity;BMP_temperature;BMP_pressure;BME280_temperature;BME280_humidity;BME280_pressure;Samples;Min_cycle;Max_cycle;Signal;HPM_P1;HPM_P2
2023/11/19 00:01:25;;;;;;;5.35;2.08;;;;;;;6.85;100.00;97217.69;5045514;28;20040;-63
2023/11/19 00:03:53;;;;;;;4.05;1.90;;;;;;;6.79;100.00;97215.09;5045401;28;20515;-62
2023/11/19 00:06:19;;;;;;;7.53;1.88;;;;;;;6.80;100.00;97222.94;5037145;28;20041;-63
2023/11/19 00:08:46;;;;;;;3.53;1.70;;;;;;;6.88;100.00;97230.69;5043496;28;20463;-62
2023/11/19 00:11:15;;;;;;;3.53;1.83;;;;;;;6.87;100.00;97228.22;5038955;28;20566;-63
2023/11/19 00:13:42;;;;;;;3.53;1.48;;;;;;;7.01;100.00;97212.69;5045362;28;20609;-62
2023/11/19 00:16:09;;;;;;;3.15;1.63;;;;;;;7.11;100.00;97220.19;5047620;28;20052;-63
2023/11/19 00:18:36;;;;;;;3.55;1.30;;;;;;;7.13;100.00;97218.06;5039328;28;20033;-62
2023/11/19 00:21:03;;;;;;;3.00;1.13;;;;;;;7.23;100.00;97231.75;5049938;28;20056;-63
2023/11/19 00:23:29;;;;;;;2.22;1.08;;;;;;;7.35;100.00;97236.34;5042792;28;20843;-62
2023/11/19 00:25:56;;;;;;;1.38;0.75;;;;;;;7.54;100.00;97227.09;5042413;28;20037;-63
2023/11/19 00:28:23;;;;;;;1.48;0.60;;;;;;;7.67;100.00;97223.31;5045550;28;20056;-63
2023/11/19 00:30:50;;;;;;;1.17;0.40;;;;;;;7.79;100.00;97206.31;5042099;28;20448;-63
2023/11/19 00:33:17;;;;;;;0.25;0.22;;;;;;;7.88;100.00;97198.66;5035627;28;20544;-62
2023/11/19 00:35:44;;;;;;;0.47;0.30;;;;;;;7.99;100.00;97197.81;5041502;28;20630;-64
2023/11/19 00:38:10;;;;;;;0.82;0.30;;;;;;;8.03;100.00;97193.56;5037130;28;20045;-64
2023/11/19 00:40:37;;;;;;;0.60;0.30;;;;;;;8.06;100.00;97181.47;5044911;28;20508;-62
2023/11/19 00:43:03;;;;;;;0.75;0.30;;;;;;;8.12;100.00;97172.44;5046902;28;20075;-63
2023/11/19 00:45:30;;;;;;;0.55;0.22;;;;;;;8.16;100.00;97172.78;5040583;28;20070;-64
2023/11/19 00:47:59;;;;;;;0.90;0.20;;;;;;;8.11;100.00;97159.19;5045902;28;20119;-63
2023/11/19 00:50:25;;;;;;;0.55;0.25;;;;;;;8.15;100.00;97166.53;5046888;28;20049;-63
2023/11/19 00:52:52;;;;;;;1.48;1.10;;;;;;;8.13;100.00;97165.16;5042401;28;20045;-63
2023/11/19 00:55:19;;;;;;;0.65;0.30;;;;;;;8.06;100.00;97173.41;5038498;28;20045;-63
2023/11/19 00:57:45;;;;;;;0.75;0.28;;;;;;;8.13;100.00;97174.06;5049113;28;20048;-63
2023/11/19 01:00:18;;;;;;;0.40;0.20;;;;;;;8.17;100.00;97169.84;5038712;28;20041;-63
2023/11/19 01:02:47;;;;;;;0.40;0.30;;;;;;;8.19;100.00;97165.00;5043519;28;20647;-63
2023/11/19 01:05:14;;;;;;;0.70;0.30;;;;;;;8.24;100.00;97153.50;5042486;28;20051;-63
2023/11/19 01:07:41;;;;;;;1.17;0.40;;;;;;;8.30;100.00;97157.13;5043878;28;20051;-63
2023/11/19 01:10:08;;;;;;;0.20;0.20;;;;;;;8.31;100.00;97151.47;5050579;28;20315;-63
2023/11/19 01:12:35;;;;;;;0.55;0.20;;;;;;;8.18;100.00;97154.47;5041365;28;20063;-63
2023/11/19 01:15:05;;;;;;;2.10;0.25;;;;;;;8.15;100.00;97161.16;5054051;28;20124;-63
2023/11/19 01:17:33;;;;;;;0.63;0.15;;;;;;;8.19;100.00;97164.22;5044928;28;20491;-62
2023/11/19 01:20:00;;;;;;;0.20;0.20;;;;;;;8.13;100.00;97168.69;5054026;28;20047;-63
2023/11/19 01:22:26;;;;;;;0.70;0.20;;;;;;;8.18;100.00;97160.69;5048747;28;20606;-63
2023/11/19 01:24:54;;;;;;;0.10;0.10;;;;;;;8.22;100.00;97158.31;5041024;28;20132;-62
2023/11/19 01:27:21;;;;;;;0.82;0.20;;;;;;;8.19;100.00;97167.69;5045268;28;20119;-63
2023/11/19 01:29:48;;;;;;;0.05;0.03;;;;;;;8.28;100.00;97159.22;5038655;28;20548;-63
2023/11/19 01:32:14;;;;;;;1.45;0.20;;;;;;;8.42;100.00;97151.66;5058863;28;20131;-63
2023/11/19 01:34:41;;;;;;;0.55;0.20;;;;;;;8.41;100.00;97131.94;5046308;28;20579;-63
2023/11/19 01:37:12;;;;;;;0.73;0.20;;;;;;;8.45;100.00;97137.69;5053612;28;20562;-63
2023/11/19 01:39:38;;;;;;;0.85;0.10;;;;;;;8.52;100.00;97151.00;5049812;28;20052;-63
2023/11/19 01:42:05;;;;;;;0.82;0.20;;;;;;;8.55;100.00;97143.25;5059601;28;20500;-63
2023/11/19 01:44:32;;;;;;;0.10;0.05;;;;;;;8.55;100.00;97145.97;5051636;28;20048;-63
2023/11/19 01:46:59;;;;;;;1.75;0.30;;;;;;;8.54;100.00;97133.53;5044865;28;20553;-63
2023/11/19 01:49:25;;;;;;;0.40;0.17;;;;;;;8.61;100.00;97137.94;5053938;28;20678;-63
2023/11/19 01:51:52;;;;;;;0.20;0.20;;;;;;;8.58;100.00;97133.84;5037087;28;20095;-63
2023/11/19 01:54:19;;;;;;;1.15;0.25;;;;;;;8.58;100.00;97131.16;5051464;28;20503;-63
2023/11/19 01:56:45;;;;;;;0.10;0.10;;;;;;;8.52;100.00;97138.31;5045380;28;20045;-64
2023/11/19 01:59:14;;;;;;;0.47;0.17;;;;;;;8.56;100.00;97136.78;5046230;28;20148;-63
2023/11/19 02:01:41;;;;;;;0.70;0.28;;;;;;;8.50;100.00;97136.94;5040635;28;20090;-63
2023/11/19 02:04:09;;;;;;;0.10;0.10;;;;;;;8.50;100.00;97145.84;5051412;28;20338;-63
2023/11/19 02:06:41;;;;;;;0.35;0.20;;;;;;;8.54;100.00;97138.09;5039175;28;20049;-63
2023/11/19 02:09:09;;;;;;;0.50;0.13;;;;;;;8.52;100.00;97137.53;5045815;28;20041;-63
2023/11/19 02:11:36;;;;;;;0.20;0.10;;;;;;;8.58;100.00;97136.56;5051038;28;20056;-63
2023/11/19 02:14:04;;;;;;;0.22;0.20;;;;;;;8.54;100.00;97130.00;5054875;28;20036;-64
2023/11/19 02:16:30;;;;;;;1.95;0.10;;;;;;;8.53;100.00;97129.22;5053180;28;20032;-63
2023/11/19 02:18:57;;;;;;;0.50;0.13;;;;;;;8.59;100.00;97130.91;5042802;28;20207;-63
2023/11/19 02:21:24;;;;;;;4.80;0.43;;;;;;;8.55;100.00;97115.47;5039081;28;20068;-63
2023/11/19 02:23:51;;;;;;;1.02;0.20;;;;;;;8.55;100.00;97127.06;5045465;28;20041;-63
2023/11/19 02:26:28;;;;;;;0.10;0.10;;;;;;;8.62;100.00;97126.13;5046306;28;20046;-63
2023/11/19 02:28:55;;;;;;;0.30;0.10;;;;;;;8.66;100.00;97125.34;5039845;28;20037;-63
2023/11/19 02:31:22;;;;;;;0.17;0.17;;;;;;;8.71;100.00;97122.72;5047223;28;20135;-64
2023/11/19 02:33:50;;;;;;;5.05;0.20;;;;;;;8.60;100.00;97118.25;5048858;28;20524;-63
2023/11/19 02:36:16;;;;;;;1.10;0.17;;;;;;;8.53;100.00;97140.00;5045911;28;20040;-62
2023/11/19 02:38:43;;;;;;;0.10;0.10;;;;;;;8.58;100.00;97141.97;5046193;28;20049;-62
2023/11/19 02:41:09;;;;;;;1.02;0.10;;;;;;;8.70;100.00;97134.59;5052256;28;20033;-63
2023/11/19 02:43:37;;;;;;;0.10;0.10;;;;;;;8.69;100.00;97142.94;5049482;28;20446;-63
2023/11/19 02:46:07;;;;;;;0.10;0.10;;;;;;;8.74;100.00;97134.13;5053994;28;20068;-63
2023/11/19 02:48:37;;;;;;;0.20;0.20;;;;;;;8.76;100.00;97129.28;5035128;28;20043;-63
2023/11/19 02:51:09;;;;;;;1.20;0.55;;;;;;;8.76;100.00;97130.09;5033553;28;20049;-62
2023/11/19 02:53:37;;;;;;;0.22;0.10;;;;;;;8.58;100.00;97141.97;5040793;28;20136;-62
2023/11/19 02:56:25;;;;;;;0.30;0.10;;;;;;;8.69;100.00;97146.47;5041064;28;20451;-63
2023/11/19 02:58:52;;;;;;;0.10;0.10;;;;;;;8.79;100.00;97139.59;5038126;28;20497;-63
2023/11/19 03:01:29;;;;;;;0.20;0.20;;;;;;;8.84;100.00;97136.97;5043689;28;20045;-63
2023/11/19 03:03:58;;;;;;;0.00;0.00;;;;;;;8.87;100.00;97131.09;5047971;28;20049;-63
2023/11/19 03:06:27;;;;;;;0.52;0.10;;;;;;;8.84;100.00;97137.78;5042023;28;20029;-63
2023/11/19 03:08:54;;;;;;;0.38;0.20;;;;;;;8.93;100.00;97146.31;5045661;28;20037;-63
2023/11/19 03:11:21;;;;;;;0.10;0.10;;;;;;;8.94;100.00;97136.31;5043793;28;20140;-63
2023/11/19 03:13:48;;;;;;;0.15;0.10;;;;;;;8.92;100.00;97133.84;5042496;28;20119;-63
2023/11/19 03:16:14;;;;;;;0.85;0.10;;;;;;;8.99;100.00;97133.69;5045093;28;20045;-63
2023/11/19 03:18:41;;;;;;;0.68;0.10;;;;;;;8.96;100.00;97135.00;5045221;28;20734;-63
2023/11/19 03:21:08;;;;;;;0.00;0.00;;;;;;;9.07;100.00;97124.34;5041508;28;20037;-63
2023/11/19 03:23:35;;;;;;;0.00;0.00;;;;;;;8.97;100.00;97135.81;5046358;28;20069;-64
2023/11/19 03:26:05;;;;;;;0.17;0.10;;;;;;;9.04;100.00;97128.38;5034275;28;20465;-62
2023/11/19 03:28:32;;;;;;;1.20;0.10;;;;;;;9.02;100.00;97118.84;5041700;28;20036;-63
2023/11/19 03:30:59;;;;;;;0.13;0.10;;;;;;;9.03;100.00;97124.00;5037882;28;20068;-63
2023/11/19 03:33:27;;;;;;;0.57;0.20;;;;;;;8.96;100.00;97126.91;5039720;28;20048;-63
2023/11/19 03:35:56;;;;;;;0.20;0.10;;;;;;;9.11;100.00;97130.91;5031818;28;20133;-63
2023/11/19 03:38:24;;;;;;;0.38;0.10;;;;;;;9.09;100.00;97131.13;5043692;28;20109;-63
2023/11/19 03:40:51;;;;;;;0.25;0.10;;;;;;;9.17;100.00;97129.06;5051296;28;20372;-63
2023/11/19 03:43:19;;;;;;;0.30;0.20;;;;;;;9.18;100.00;97133.41;5039861;28;20658;-63
2023/11/19 03:45:46;;;;;;;0.03;0.03;;;;;;;9.17;100.00;97131.75;5036619;28;20043;-63
2023/11/19 03:48:14;;;;;;;0.20;0.03;;;;;;;9.31;100.00;97122.25;5043788;28;20052;-63
2023/11/19 03:50:40;;;;;;;0.15;0.10;;;;;;;9.33;100.00;97108.50;5035029;28;20042;-63
2023/11/19 03:53:07;;;;;;;0.20;0.10;;;;;;;9.28;100.00;97109.22;5044922;28;20064;-62
2023/11/19 03:55:33;;;;;;;0.85;0.10;;;;;;;9.20;100.00;97105.09;5034817;28;20029;-63
2023/11/19 03:58:00;;;;;;;0.00;0.00;;;;;;;9.22;100.00;97110.25;5042332;28;20574;-63
2023/11/19 04:00:27;;;;;;;0.15;0.00;;;;;;;9.30;100.00;97109.00;5044378;28;20044;-62
2023/11/19 04:02:54;;;;;;;0.08;0.08;;;;;;;9.21;100.00;97105.88;5034680;28;20052;-64
2023/11/19 04:05:20;;;;;;;0.00;0.00;;;;;;;9.31;100.00;97105.22;5043265;28;20125;-62
2023/11/19 04:07:47;;;;;;;0.20;0.10;;;;;;;9.32;100.00;97109.56;5044894;28;20048;-63
2023/11/19 04:10:16;;;;;;;0.65;0.10;;;;;;;9.33;100.00;97113.91;5044161;28;20047;-63
2023/11/19 04:12:43;;;;;;;0.30;0.10;;;;;;;9.30;100.00;97117.09;5045650;28;20052;-63
2023/11/19 04:15:11;;;;;;;0.10;0.10;;;;;;;9.36;100.00;97108.81;5046207;28;20080;-63
2023/11/19 04:17:38;;;;;;;0.08;0.08;;;;;;;9.41;100.00;97112.63;5042194;28;20491;-63
2023/11/19 04:20:06;;;;;;;1.27;0.22;;;;;;;9.44;100.00;97104.84;5039117;28;20040;-63
2023/11/19 04:22:32;;;;;;;1.33;0.10;;;;;;;9.43;100.00;97108.63;5032138;28;20040;-63
2023/11/19 04:24:59;;;;;;;0.75;0.05;;;;;;;9.47;100.00;97103.53;5047698;28;20051;-63
2023/11/19 04:27:25;;;;;;;0.10;0.10;;;;;;;9.35;100.00;97095.53;5047996;28;20156;-63
2023/11/19 04:29:52;;;;;;;0.10;0.00;;;;;;;9.31;100.00;97110.63;5042038;28;20045;-62
2023/11/19 04:32:20;;;;;;;0.10;0.10;;;;;;;9.34;100.00;97120.94;5042328;28;20045;-63
2023/11/19 04:34:48;;;;;;;0.05;0.05;;;;;;;9.19;100.00;97127.78;5043773;28;20071;-64
2023/11/19 04:37:15;;;;;;;0.22;0.10;;;;;;;9.15;100.00;97136.59;5035035;28;20049;-64
2023/11/19 04:39:45;;;;;;;0.20;0.10;;;;;;;9.14;100.00;97146.59;5048951;28;20057;-63
2023/11/19 04:42:12;;;;;;;1.35;0.10;;;;;;;9.17;100.00;97145.28;5041811;28;20500;-63
2023/11/19 04:44:39;;;;;;;0.10;0.10;;;;;;;9.28;100.00;97138.94;5052226;28;20044;-63
2023/11/19 04:47:05;;;;;;;0.10;0.10;;;;;;;9.27;100.00;97147.31;5034431;28;20040;-63
2023/11/19 04:49:32;;;;;;;0.45;0.20;;;;;;;9.31;100.00;97145.75;5044129;28;20048;-64
2023/11/19 04:51:59;;;;;;;0.15;0.10;;;;;;;9.37;100.00;97161.78;5049201;28;20068;-64
2023/11/19 04:54:25;;;;;;;0.10;0.10;;;;;;;9.56;100.00;97155.25;5040823;28;20037;-63
2023/11/19 04:56:52;;;;;;;0.90;0.13;;;;;;;9.70;100.00;97156.50;5055258;28;20109;-64
2023/11/19 04:59:18;;;;;;;1.70;0.20;;;;;;;9.96;100.00;97137.91;5040124;28;20045;-64
2023/11/19 05:01:48;;;;;;;0.63;0.22;;;;;;;10.11;100.00;97122.91;5038288;28;20044;-63
2023/11/19 05:04:14;;;;;;;1.25;0.10;;;;;;;10.29;100.00;97100.06;5038231;28;20041;-63
2023/11/19 05:06:41;;;;;;;0.25;0.10;;;;;;;10.35;100.00;97082.78;5043866;28;20768;-63
2023/11/19 05:09:09;;;;;;;0.10;0.10;;;;;;;10.42;100.00;97096.13;5046807;28;20041;-63
2023/11/19 05:11:35;;;;;;;0.10;0.10;;;;;;;10.43;100.00;97095.03;5044972;28;20096;-63
2023/11/19 05:14:05;;;;;;;0.13;0.10;;;;;;;10.45;100.00;97095.63;5054846;28;20060;-63
2023/11/19 05:16:32;;;;;;;0.55;0.10;;;;;;;10.56;100.00;97098.41;5046092;28;20048;-63
2023/11/19 05:18:59;;;;;;;0.10;0.10;;;;;;;10.63;100.00;97093.59;5049032;28;20037;-63
2023/11/19 05:21:26;;;;;;;0.10;0.10;;;;;;;10.64;100.00;97101.47;5046968;28;20047;-63
2023/11/19 05:23:52;;;;;;;1.85;0.17;;;;;;;10.68;100.00;97088.22;5048432;28;20065;-62
2023/11/19 05:26:21;;;;;;;3.45;0.20;;;;;;;10.67;100.00;97100.13;5036110;28;20037;-63
2023/11/19 05:28:48;;;;;;;1.20;0.40;;;;;;;10.77;100.00;97091.28;5048980;28;20041;-63
2023/11/19 05:31:16;;;;;;;0.40;0.20;;;;;;;10.73;100.00;97082.03;5050285;28;20452;-63
2023/11/19 05:33:43;;;;;;;0.45;0.20;;;;;;;10.71;100.00;97092.31;5054649;28;20041;-63
2023/11/19 05:36:12;;;;;;;0.68;0.30;;;;;;;10.75;100.00;97083.41;5049513;28;20039;-63
2023/11/19 05:38:39;;;;;;;0.77;0.25;;;;;;;10.78;100.00;97076.66;5036209;28;20049;-63
2023/11/19 05:41:06;;;;;;;0.68;0.20;;;;;;;10.82;100.00;97064.22;5047953;28;20041;-63
2023/11/19 05:43:33;;;;;;;0.65;0.30;;;;;;;10.80;100.00;97059.06;5045055;28;20072;-63
2023/11/19 05:46:01;;;;;;;1.23;0.30;;;;;;;10.82;100.00;97055.28;5051440;28;20032;-62
2023/11/19 05:48:28;;;;;;;0.50;0.30;;;;;;;10.77;100.00;97053.38;5048890;28;20036;-62
2023/11/19 05:50:55;;;;;;;0.25;0.20;;;;;;;10.77;100.00;97045.25;5037947;28;20052;-63
2023/11/19 05:53:22;;;;;;;0.35;0.30;;;;;;;10.82;100.00;97047.97;5043801;28;20443;-63
2023/11/19 05:55:55;;;;;;;0.47;0.22;;;;;;;10.79;100.00;97057.44;5052591;28;20041;-63
2023/11/19 05:58:26;;;;;;;0.98;0.40;;;;;;;10.88;100.00;97056.94;5034669;28;20059;-63
2023/11/19 06:00:52;;;;;;;1.40;0.40;;;;;;;10.90;100.00;97057.50;5048985;28;20098;-63
2023/11/19 06:03:19;;;;;;;0.55;0.20;;;;;;;10.85;100.00;97050.16;5035182;28;20271;-63
2023/11/19 06:05:46;;;;;;;1.63;0.30;;;;;;;10.91;100.00;97054.53;5032530;28;20037;-64
2023/11/19 06:08:13;;;;;;;0.43;0.32;;;;;;;10.79;100.00;97065.56;5037158;28;20041;-64
2023/11/19 06:10:46;;;;;;;0.65;0.30;;;;;;;10.88;100.00;97068.59;5039603;28;20045;-63
2023/11/19 06:13:15;;;;;;;1.10;0.40;;;;;;;10.95;100.00;97076.50;5038519;28;20083;-63
2023/11/19 06:15:42;;;;;;;0.52;0.20;;;;;;;10.93;100.00;97075.94;5039068;28;20412;-63
2023/11/19 06:18:11;;;;;;;0.85;0.22;;;;;;;10.93;100.00;97084.06;5042565;28;20041;-63
2023/11/19 06:20:38;;;;;;;0.15;0.10;;;;;;;11.01;100.00;97078.16;5043650;28;20571;-64
2023/11/19 06:23:07;;;;;;;1.17;0.25;;;;;;;11.01;100.00;97071.91;5038261;28;20045;-65
2023/11/19 06:25:35;;;;;;;1.35;0.30;;;;;;;11.01;100.00;97066.50;5039464;28;20059;-63
2023/11/19 06:28:02;;;;;;;0.32;0.20;;;;;;;11.09;100.00;97079.53;5040851;28;20045;-63
2023/11/19 06:30:31;;;;;;;1.80;0.55;;;;;;;11.13;100.00;97074.44;5044103;28;20497;-63
2023/11/19 06:32:57;;;;;;;1.00;0.50;;;;;;;11.16;100.00;97071.19;5035804;28;20041;-62
2023/11/19 06:35:24;;;;;;;0.20;0.20;;;;;;;11.17;100.00;97076.34;5035411;28;20049;-64
2023/11/19 06:37:51;;;;;;;0.65;0.30;;;;;;;11.06;100.00;97074.66;5046772;28;20537;-63
2023/11/19 06:40:17;;;;;;;0.35;0.20;;;;;;;10.99;100.00;97085.72;5044860;28;20055;-63
2023/11/19 06:42:44;;;;;;;0.10;0.10;;;;;;;10.89;100.00;97078.38;5041113;28;20048;-63
2023/11/19 06:45:10;;;;;;;0.57;0.20;;;;;;;10.96;100.00;97082.72;5047800;28;20105;-63
2023/11/19 06:47:37;;;;;;;0.45;0.30;;;;;;;10.97;100.00;97077.03;5043619;28;20033;-64
2023/11/19 06:50:05;;;;;;;0.85;0.25;;;;;;;10.78;100.00;97080.19;5045587;28;20057;-63
2023/11/19 06:52:32;;;;;;;0.95;0.47;;;;;;;10.71;100.00;97070.63;5038022;28;20507;-63
2023/11/19 06:54:58;;;;;;;0.52;0.30;;;;;;;10.72;100.00;97083.13;5040128;28;20049;-63
2023/11/19 06:57:29;;;;;;;0.40;0.28;;;;;;;10.70;100.00;97067.13;5037881;28;20029;-63
2023/11/19 06:59:57;;;;;;;1.08;0.30;;;;;;;10.63;100.00;97077.38;5040762;28;20553;-63
2023/11/19 07:02:23;;;;;;;0.98;0.30;;;;;;;10.62;100.00;97078.44;5043459;28;20051;-61
2023/11/19 07:04:54;;;;;;;0.40;0.30;;;;;;;10.49;100.00;97080.50;5044507;28;20091;-61
2023/11/19 07:07:20;;;;;;;0.50;0.32;;;;;;;10.35;100.00;97077.38;5044011;28;20048;-62
2023/11/19 07:09:47;;;;;;;1.20;0.43;;;;;;;10.36;100.00;97081.72;5041514;28;20038;-61
2023/11/19 07:12:14;;;;;;;1.52;0.35;;;;;;;10.36;100.00;97089.84;5038003;28;20054;-61
2023/11/19 07:14:41;;;;;;;0.95;0.50;;;;;;;10.37;100.00;97087.97;5034237;28;20118;-61
2023/11/19 07:17:09;;;;;;;2.25;0.50;;;;;;;10.39;100.00;97097.44;5041243;28;20044;-61
2023/11/19 07:19:37;;;;;;;1.25;0.50;;;;;;;10.38;100.00;97087.69;5035762;28;20044;-63
2023/11/19 07:22:04;;;;;;;1.10;0.50;;;;;;;10.43;100.00;97099.66;5043889;28;20049;-63
2023/11/19 07:24:31;;;;;;;1.42;0.30;;;;;;;10.53;100.00;97099.75;5046150;28;20692;-64
2023/11/19 07:26:57;;;;;;;0.82;0.40;;;;;;;10.56;100.00;97109.25;5042713;28;20087;-63
2023/11/19 07:29:24;;;;;;;2.03;0.40;;;;;;;10.66;100.00;97102.00;5033083;28;20051;-63
2023/11/19 07:31:53;;;;;;;2.03;0.40;;;;;;;10.75;100.00;97088.81;5036953;28;20051;-64
2023/11/19 07:34:21;;;;;;;0.85;0.30;;;;;;;10.73;100.00;97106.41;5040225;28;20072;-64
2023/11/19 07:36:47;;;;;;;1.00;0.30;;;;;;;10.77;100.00;97108.31;5034115;28;20411;-63
2023/11/19 07:39:14;;;;;;;1.75;0.50;;;;;;;10.78;100.00;97101.03;5046981;28;20061;-63
2023/11/19 07:41:40;;;;;;;1.05;0.47;;;;;;;10.76;100.00;97109.41;5034904;28;20053;-63
2023/11/19 07:44:07;;;;;;;1.75;0.38;;;;;;;10.88;100.00;97109.22;5049573;28;20071;-63
2023/11/19 07:46:34;;;;;;;0.75;0.40;;;;;;;10.92;100.00;97126.56;5043454;28;20036;-63
2023/11/19 07:49:02;;;;;;;1.65;0.60;;;;;;;10.90;100.00;97133.34;5041992;28;20519;-63
2023/11/19 07:51:29;;;;;;;0.65;0.35;;;;;;;10.97;100.00;97130.41;5049199;28;20045;-63
2023/11/19 07:53:55;;;;;;;0.55;0.20;;;;;;;11.07;100.00;97133.19;5036082;28;20120;-63
2023/11/19 07:56:22;;;;;;;0.40;0.10;;;;;;;11.16;100.00;97125.38;5042944;28;20044;-63
2023/11/19 07:58:48;;;;;;;0.43;0.20;;;;;;;11.13;100.00;97139.47;5047984;28;20077;-63
2023/11/19 08:01:15;;;;;;;0.55;0.50;;;;;;;11.24;100.00;97129.50;5041265;28;20520;-63
2023/11/19 08:03:42;;;;;;;0.57;0.30;;;;;;;11.23;100.00;97128.69;5029747;28;20045;-63
2023/11/19 08:06:24;;;;;;;0.93;0.30;;;;;;;11.11;100.00;97128.88;5040084;28;20052;-63
2023/11/19 08:08:51;;;;;;;2.25;0.90;;;;;;;11.17;100.00;97127.81;5036600;28;20225;-63
2023/11/19 08:11:19;;;;;;;1.63;0.60;;;;;;;11.10;100.00;97115.59;5048338;28;20051;-64
2023/11/19 08:13:46;;;;;;;1.20;0.50;;;;;;;11.00;100.00;97121.75;5043437;28;20051;-63
2023/11/19 08:16:13;;;;;;;0.68;0.38;;;;;;;11.07;100.00;97127.78;5046712;28;20049;-64
2023/11/19 08:18:42;;;;;;;0.63;0.50;;;;;;;11.20;100.00;97129.19;5049975;28;20053;-63
2023/11/19 08:21:09;;;;;;;2.03;0.40;;;;;;;11.23;100.00;97146.81;5042966;28;20037;-63
2023/11/19 08:23:36;;;;;;;0.68;0.40;;;;;;;11.35;100.00;97147.44;5040545;28;20045;-63
2023/11/19 08:26:04;;;;;;;0.88;0.50;;;;;;;11.45;100.00;97144.78;5032498;28;20059;-63
2023/11/19 08:28:31;;;;;;;1.90;0.47;;;;;;;11.52;100.00;97147.28;5032035;28;20045;-63
2023/11/19 08:30:58;;;;;;;3.40;0.75;;;;;;;11.62;100.00;97145.69;5036993;28;20408;-63
2023/11/19 08:33:27;;;;;;;1.08;0.47;;;;;;;11.70;100.00;97134.31;5034266;28;20051;-63
2023/11/19 08:35:53;;;;;;;0.75;0.40;;;;;;;11.62;100.00;97135.66;5034296;28;20112;-63
2023/11/19 08:38:20;;;;;;;0.57;0.38;;;;;;;11.64;100.00;97151.66;5051283;28;20094;-63
2023/11/19 08:40:49;;;;;;;1.02;0.30;;;;;;;11.69;100.00;97157.13;5041564;28;20045;-64
2023/11/19 08:43:16;;;;;;;2.20;0.40;;;;;;;11.82;100.00;97150.38;5046649;28;20055;-63
2023/11/19 08:45:42;;;;;;;2.28;0.50;;;;;;;11.92;100.00;97152.31;5045495;28;20572;-63
2023/11/19 08:48:09;;;;;;;1.50;0.55;;;;;;;11.90;100.00;97144.44;5049332;28;20048;-63
2023/11/19 08:50:35;;;;;;;1.40;0.47;;;;;;;11.89;100.00;97145.53;5039686;28;20041;-63
2023/11/19 08:53:02;;;;;;;0.98;0.30;;;;;;;11.86;100.00;97145.25;5040621;28;20053;-63
2023/11/19 08:55:29;;;;;;;0.50;0.35;;;;;;;11.89;100.00;97140.09;5042581;28;20124;-63
2023/11/19 08:57:55;;;;;;;1.80;0.28;;;;;;;11.97;100.00;97149.59;5035518;28;20099;-63
2023/11/19 09:00:22;;;;;;;1.40;0.55;;;;;;;12.06;100.00;97153.47;5038144;28;20048;-63
2023/11/19 09:02:48;;;;;;;2.15;0.60;;;;;;;12.06;100.00;97158.88;5038923;28;20064;-63
2023/11/19 09:05:15;;;;;;;2.30;0.40;;;;;;;12.11;100.00;97155.38;5043594;28;20047;-64
2023/11/19 09:07:42;;;;;;;1.83;0.43;;;;;;;12.24;100.00;97137.78;5031906;28;20701;-63
2023/11/19 09:10:08;;;;;;;1.83;0.50;;;;;;;12.17;100.00;97142.66;5029362;28;20060;-63
2023/11/19 09:12:35;;;;;;;0.47;0.20;;;;;;;12.15;100.00;97142.91;5045680;28;20063;-63
2023/11/19 09:15:02;;;;;;;1.80;0.50;;;;;;;12.24;100.00;97143.22;5045158;28;20041;-63
2023/11/19 09:17:29;;;;;;;1.55;0.38;;;;;;;12.19;100.00;97135.88;5037223;28;20428;-63
2023/11/19 09:19:55;;;;;;;0.85;0.30;;;;;;;12.18;100.00;97147.81;5036388;28;20095;-64
2023/11/19 09:22:22;;;;;;;0.95;0.20;;;;;;;12.18;100.00;97146.97;5031789;28;20633;-63
2023/11/19 09:24:48;;;;;;;0.85;0.40;;;;;;;12.24;100.00;97145.94;5029806;28;20308;-63
2023/11/19 09:27:15;;;;;;;0.50;0.30;;;;;;;12.08;100.00;97148.59;5032489;28;20052;-64
2023/11/19 09:29:43;;;;;;;0.73;0.40;;;;;;;12.01;100.00;97150.69;5045981;28;20136;-64
2023/11/19 09:32:09;;;;;;;0.15;0.10;;;;;;;12.05;100.00;97149.13;5049637;28;20099;-64
2023/11/19 09:34:36;;;;;;;2.63;0.57;;;;;;;11.97;100.00;97153.16;5039877;28;20056;-63
2023/11/19 09:37:03;;;;;;;2.15;0.40;;;;;;;12.08;100.00;97155.91;5037042;28;20041;-63
2023/11/19 09:39:30;;;;;;;0.65;0.22;;;;;;;12.10;100.00;97145.63;5034824;28;20124;-64
2023/11/19 09:41:57;;;;;;;1.85;0.40;;;;;;;12.22;100.00;97151.63;5051305;28;20051;-63
2023/11/19 09:44:25;;;;;;;1.08;0.13;;;;;;;12.37;100.00;97144.56;5049369;28;20040;-63
2023/11/19 09:46:54;;;;;;;0.30;0.20;;;;;;;12.48;100.00;97142.69;5037452;28;20520;-63
2023/11/19 09:49:22;;;;;;;0.57;0.30;;;;;;;12.55;100.00;97145.13;5048149;28;20076;-63
2023/11/19 09:52:02;;;;;;;1.50;0.45;;;;;;;12.53;100.00;97142.69;5030515;28;20465;-64
2023/11/19 09:54:29;;;;;;;2.17;0.30;;;;;;;12.55;100.00;97140.53;5046632;28;20059;-63
2023/11/19 09:57:02;;;;;;;3.10;0.30;;;;;;;12.48;100.00;97146.22;5037388;28;20623;-64
2023/11/19 09:59:31;;;;;;;0.55;0.25;;;;;;;12.56;100.00;97134.00;5037669;28;20710;-63
2023/11/19 10:01:57;;;;;;;2.67;0.35;;;;;;;12.61;100.00;97136.72;5044714;28;20097;-64
2023/11/19 10:04:28;;;;;;;2.40;0.55;;;;;;;12.59;100.00;97141.63;5035049;28;20049;-63
2023/11/19 10:06:55;;;;;;;0.85;0.20;;;;;;;12.72;100.00;97139.47;5046207;28;20402;-64
2023/11/19 10:09:22;;;;;;;2.72;0.50;;;;;;;12.84;100.00;97129.13;5044322;28;20045;-64
2023/11/19 10:11:49;;;;;;;1.13;0.30;;;;;;;12.91;100.00;97130.75;5031231;28;20095;-63
2023/11/19 10:14:22;;;;;;;0.88;0.32;;;;;;;12.95;100.00;97124.50;5034663;28;20083;-63
2023/11/19 10:16:49;;;;;;;0.68;0.22;;;;;;;13.02;100.00;97126.94;5034261;28;20040;-63
2023/11/19 10:19:20;;;;;;;2.55;0.60;;;;;;;12.98;100.00;97125.84;5034874;28;20110;-63
2023/11/19 10:21:48;;;;;;;3.75;0.38;;;;;;;12.99;100.00;97120.16;5039629;28;20041;-64
2023/11/19 10:24:15;;;;;;;1.40;0.40;;;;;;;13.03;100.00;97109.53;5040525;28;20080;-64
2023/11/19 10:26:57;;;;;;;2.03;0.70;;;;;;;13.11;100.00;97119.84;5047910;28;20124;-63
2023/11/19 10:29:23;;;;;;;0.82;0.40;;;;;;;13.21;100.00;97113.59;5037485;28;20091;-64
2023/11/19 10:31:57;;;;;;;0.47;0.30;;;;;;;13.32;100.00;97105.38;5041910;28;20421;-63
2023/11/19 10:34:44;;;;;;;1.08;0.30;;;;;;;13.37;100.00;97105.38;5044835;28;20056;-64
2023/11/19 10:37:27;;;;;;;0.65;0.20;;;;;;;13.35;100.00;97113.78;5044923;28;20575;-63
2023/11/19 10:39:54;;;;;;;1.85;0.35;;;;;;;13.38;100.00;97099.66;5040727;28;20048;-63
2023/11/19 10:42:22;;;;;;;3.03;0.40;;;;;;;13.45;100.00;97104.00;5047890;28;20076;-63
2023/11/19 10:44:48;;;;;;;1.65;0.40;;;;;;;13.48;100.00;97101.56;5042063;28;20052;-63
2023/11/19 10:47:18;;;;;;;1.30;0.63;;;;;;;13.50;100.00;97104.00;5040446;28;20046;-63
2023/11/19 10:49:45;;;;;;;4.57;0.40;;;;;;;13.49;100.00;97102.38;5044241;28;20158;-63
2023/11/19 10:52:19;;;;;;;1.90;0.35;;;;;;;13.46;100.00;97105.63;5039882;28;20048;-63
2023/11/19 10:54:50;;;;;;;2.42;0.63;;;;;;;13.40;100.00;97111.09;5042323;28;20046;-64
2023/11/19 10:57:21;;;;;;;1.25;0.40;;;;;;;13.30;100.00;97113.81;5036028;28;20051;-63
2023/11/19 10:59:49;;;;;;;;;;;;;;;13.12;100.00;97112.53;5034823;28;20513;-62
2023/11/19 11:02:21;;;;;;;1.25;0.20;;;;;;;12.97;100.00;97116.88;5044029;28;19995;-63
2023/11/19 11:04:49;;;;;;;1.83;0.60;;;;;;;12.90;100.00;97108.19;5044959;28;20045;-63
2023/11/19 11:07:21;;;;;;;0.73;0.30;;;;;;;12.87;100.00;97122.34;5045465;28;20068;-63
2023/11/19 11:09:53;;;;;;;2.67;0.50;;;;;;;12.89;100.00;97117.44;5029775;28;20044;-63
2023/11/19 11:12:23;;;;;;;1.67;0.40;;;;;;;12.91;100.00;97119.88;5029768;28;20041;-63
2023/11/19 11:14:50;;;;;;;1.13;0.53;;;;;;;12.94;100.00;97122.84;5038124;28;20622;-64
2023/11/19 11:17:18;;;;;;;2.70;0.60;;;;;;;13.01;100.00;97119.84;5039525;28;20302;-62
2023/11/19 11:19:45;;;;;;;5.35;0.52;;;;;;;13.05;100.00;97112.78;5042372;28;20055;-63
2023/11/19 11:22:15;;;;;;;2.75;0.40;;;;;;;13.08;100.00;97117.66;5027653;28;20045;-63
2023/11/19 11:24:51;;;;;;;2.05;0.50;;;;;;;13.18;100.00;97111.41;5043498;28;20040;-63
2023/11/19 11:27:43;;;;;;;2.42;0.50;;;;;;;13.30;100.00;97107.59;5039197;28;20301;-63
2023/11/19 11:30:26;;;;;;;2.72;0.75;;;;;;;13.45;100.00;97110.22;5042812;28;20041;-62
2023/11/19 11:33:32;;;;;;;0.82;0.43;;;;;;;13.42;100.00;97090.94;5035531;28;20045;-63